createdAt,value
2023-02-17T00:01:32.494Z,3.30
2023-02-17T00:04:00.312Z,3.50
2023-02-17T00:06:29.803Z,3.50
2023-02-17T00:08:57.687Z,3.30
2023-02-17T00:11:24.836Z,3.50
2023-02-17T00:13:54.492Z,3.40
2023-02-17T00:16:25.580Z,3.40
2023-02-17T00:18:58.405Z,3.40
2023-02-17T00:21:27.957Z,3.50
2023-02-17T00:23:54.958Z,3.40
2023-02-17T00:26:22.198Z,3.50
2023-02-17T00:28:50.342Z,3.40
2023-02-17T00:31:21.106Z,3.40
2023-02-17T00:33:49.013Z,3.70
2023-02-17T00:36:19.353Z,3.40
2023-02-17T00:38:49.928Z,3.30
2023-02-17T00:41:18.359Z,3.60
2023-02-17T00:43:45.936Z,3.40
2023-02-17T00:46:13.033Z,3.40
2023-02-17T00:48:40.269Z,3.50
2023-02-17T00:51:07.590Z,3.60
2023-02-17T00:53:34.909Z,3.40
2023-02-17T00:56:02.544Z,3.40
2023-02-17T00:58:29.466Z,3.40
2023-02-17T01:00:57.460Z,3.50
2023-02-17T01:03:25.600Z,3.50
2023-02-17T01:05:53.012Z,3.70
2023-02-17T01:08:20.290Z,3.40
2023-02-17T01:10:47.917Z,3.70
2023-02-17T01:13:17.038Z,3.40
2023-02-17T01:15:49.801Z,3.70
2023-02-17T01:18:18.216Z,3.70
2023-02-17T01:20:45.398Z,3.50
2023-02-17T01:23:13.131Z,3.50
2023-02-17T01:25:41.854Z,3.70
2023-02-17T01:28:09.670Z,3.60
2023-02-17T01:30:36.630Z,3.70
2023-02-17T01:33:03.617Z,3.50
2023-02-17T01:35:30.559Z,3.50
2023-02-17T01:37:57.473Z,3.60
2023-02-17T01:40:24.705Z,3.50
2023-02-17T01:42:51.622Z,3.40
2023-02-17T01:45:18.470Z,3.50
2023-02-17T01:47:50.854Z,3.40
2023-02-17T01:50:22.577Z,3.70
2023-02-17T01:52:50.505Z,3.40
2023-02-17T01:55:21.224Z,3.40
2023-02-17T01:57:49.940Z,3.70
2023-02-17T02:00:18.185Z,3.50
2023-02-17T02:02:48.619Z,3.50
2023-02-17T02:05:18.462Z,3.30
2023-02-17T02:07:47.646Z,3.40
2023-02-17T02:10:16.129Z,3.50
2023-02-17T02:12:44.559Z,3.50
2023-02-17T02:15:14.189Z,3.50
2023-02-17T02:17:55.866Z,3.50
2023-02-17T02:20:50.440Z,3.50
2023-02-17T02:23:26.705Z,3.40
2023-02-17T02:26:15.116Z,3.40
2023-02-17T02:28:50.720Z,3.40
2023-02-17T02:31:29.405Z,3.50
2023-02-17T02:34:24.921Z,3.50
2023-02-17T02:37:15.176Z,3.40
2023-02-17T02:39:47.372Z,3.50
2023-02-17T02:42:18.416Z,3.50
2023-02-17T02:44:45.341Z,3.60
2023-02-17T02:47:50.281Z,3.50
2023-02-17T02:50:25.572Z,3.40
2023-02-17T02:53:21.775Z,3.40
2023-02-17T02:56:16.295Z,3.50
2023-02-17T02:59:10.982Z,3.60
2023-02-17T03:02:00.884Z,3.50
2023-02-17T03:04:36.853Z,3.40
2023-02-17T03:07:11.334Z,3.60
2023-02-17T03:09:39.314Z,3.50
2023-02-17T03:12:06.923Z,3.50
2023-02-17T03:14:38.420Z,3.50
2023-02-17T03:17:05.734Z,3.50
2023-02-17T03:19:32.694Z,3.60
2023-02-17T03:22:12.293Z,3.60
2023-02-17T03:24:39.205Z,3.40
2023-02-17T03:27:06.205Z,3.40
2023-02-17T03:29:40.971Z,3.50
2023-02-17T03:32:08.620Z,3.50
2023-02-17T03:34:35.773Z,3.40
2023-02-17T03:37:02.964Z,3.30
2023-02-17T03:39:30.378Z,3.50
2023-02-17T03:41:57.341Z,3.50
2023-02-17T03:44:24.319Z,3.40
2023-02-17T03:46:51.277Z,3.50
2023-02-17T03:49:18.224Z,3.40
2023-02-17T03:51:45.223Z,3.60
2023-02-17T03:54:12.184Z,3.60
2023-02-17T03:56:39.201Z,3.60
2023-02-17T03:59:06.210Z,3.60
2023-02-17T04:01:33.291Z,3.50
2023-02-17T04:04:00.299Z,3.40
2023-02-17T04:06:27.332Z,3.50
2023-02-17T04:08:54.307Z,3.60
2023-02-17T04:11:21.224Z,3.50
2023-02-17T04:13:48.181Z,3.50
2023-02-17T04:16:15.104Z,3.50
2023-02-17T04:18:42.062Z,3.40
2023-02-17T04:21:09.097Z,3.40
2023-02-17T04:23:37.321Z,3.40
2023-02-17T04:26:06.362Z,3.50
2023-02-17T04:28:33.529Z,3.50
2023-02-17T04:31:00.757Z,3.50
2023-02-17T04:33:27.863Z,3.30
2023-02-17T04:35:59.799Z,3.30
2023-02-17T04:38:28.005Z,3.50
2023-02-17T04:40:59.505Z,3.40
2023-02-17T04:43:27.972Z,3.60
2023-02-17T04:45:55.142Z,3.40
2023-02-17T04:48:22.823Z,3.40
2023-02-17T04:50:49.808Z,3.40
2023-02-17T04:53:16.888Z,3.30
2023-02-17T04:55:44.554Z,3.60
2023-02-17T04:58:11.497Z,3.40
2023-02-17T05:00:38.487Z,3.30
2023-02-17T05:03:05.486Z,3.50
2023-02-17T05:05:32.553Z,3.50
2023-02-17T05:07:59.488Z,3.40
2023-02-17T05:10:26.451Z,3.60
2023-02-17T05:12:53.453Z,3.50
2023-02-17T05:15:20.434Z,3.50
2023-02-17T05:17:47.385Z,3.50
2023-02-17T05:20:14.566Z,3.50
2023-02-17T05:22:41.509Z,3.70
2023-02-17T05:25:08.908Z,3.70
2023-02-17T05:27:35.954Z,3.60
2023-02-17T05:30:03.884Z,3.50
2023-02-17T05:32:30.822Z,3.20
2023-02-17T05:34:57.811Z,3.50
2023-02-17T05:37:24.889Z,3.50
2023-02-17T05:39:51.818Z,3.50
2023-02-17T05:42:18.720Z,3.60
2023-02-17T05:44:45.717Z,3.60
2023-02-17T05:47:12.623Z,3.70
2023-02-17T05:49:39.735Z,3.60
2023-02-17T05:52:06.993Z,3.70
2023-02-17T05:54:34.064Z,3.70
2023-02-17T05:57:01.039Z,3.50
2023-02-17T05:59:28.264Z,3.60
2023-02-17T06:01:55.349Z,3.70
2023-02-17T06:04:23.499Z,3.60
2023-02-17T06:06:51.042Z,3.60
2023-02-17T06:09:18.073Z,3.60
2023-02-17T06:11:44.976Z,3.60
2023-02-17T06:14:12.244Z,3.60
2023-02-17T06:16:39.219Z,3.60
2023-02-17T06:19:06.242Z,3.50
2023-02-17T06:21:33.205Z,3.60
2023-02-17T06:24:00.112Z,3.50
2023-02-17T06:26:27.055Z,3.60
2023-02-17T06:28:54.619Z,3.70
2023-02-17T06:31:21.691Z,3.60
2023-02-17T06:33:48.688Z,3.60
2023-02-17T06:36:15.618Z,3.70
2023-02-17T06:38:42.574Z,3.60
2023-02-17T06:41:09.534Z,3.50
2023-02-17T06:43:36.786Z,3.60
2023-02-17T06:46:04.126Z,3.70
2023-02-17T06:48:33.299Z,3.80
2023-02-17T06:51:01.389Z,3.80
2023-02-17T06:53:28.523Z,3.60
2023-02-17T06:55:55.525Z,3.80
2023-02-17T06:58:22.421Z,3.80
2023-02-17T07:00:49.387Z,3.70
2023-02-17T07:03:16.724Z,3.90
2023-02-17T07:05:43.651Z,3.70
2023-02-17T07:08:10.603Z,3.90
2023-02-17T07:10:39.615Z,3.90
2023-02-17T07:13:06.863Z,4.10
2023-02-17T07:15:34.286Z,3.90
2023-02-17T07:18:02.101Z,3.70
2023-02-17T07:20:29.218Z,4.00
2023-02-17T07:22:56.195Z,3.90
2023-02-17T07:25:23.133Z,4.00
2023-02-17T07:27:50.340Z,3.90
2023-02-17T07:30:17.812Z,4.00
2023-02-17T07:32:45.046Z,3.80
2023-02-17T07:35:12.020Z,4.10
2023-02-17T07:37:39.020Z,3.70
2023-02-17T07:40:06.872Z,3.90
2023-02-17T07:42:34.267Z,4.10
2023-02-17T07:45:01.186Z,3.80
2023-02-17T07:47:28.128Z,4.00
2023-02-17T07:49:55.076Z,3.80
2023-02-17T07:52:22.268Z,3.90
2023-02-17T07:54:49.193Z,3.80
2023-02-17T07:57:16.182Z,3.90
2023-02-17T07:59:45.995Z,4.00
2023-02-17T08:02:12.963Z,4.00
2023-02-17T08:04:39.912Z,3.90
2023-02-17T08:07:06.884Z,3.90
2023-02-17T08:09:52.418Z,3.90
2023-02-17T08:12:39.521Z,3.90
2023-02-17T08:15:09.512Z,4.00
2023-02-17T08:17:36.615Z,4.00
2023-02-17T08:20:08.655Z,4.10
2023-02-17T08:22:36.442Z,4.10
2023-02-17T08:25:06.259Z,3.90
2023-02-17T08:27:33.756Z,3.80
2023-02-17T08:30:00.880Z,4.00
2023-02-17T08:32:27.948Z,3.90
2023-02-17T08:34:58.141Z,4.10
2023-02-17T08:37:25.598Z,4.00
2023-02-17T08:39:52.601Z,4.00
2023-02-17T08:42:20.038Z,4.00
2023-02-17T08:44:47.221Z,4.20
2023-02-17T08:47:14.484Z,4.20
2023-02-17T08:49:41.438Z,4.10
2023-02-17T08:52:08.557Z,4.20
2023-02-17T08:54:35.861Z,4.10
2023-02-17T08:57:02.806Z,4.00
2023-02-17T08:59:29.827Z,4.20
2023-02-17T09:01:57.219Z,4.00
2023-02-17T09:04:24.404Z,4.20
2023-02-17T09:06:53.522Z,4.10
2023-02-17T09:09:23.321Z,4.20
2023-02-17T09:11:50.260Z,4.20
2023-02-17T09:14:17.475Z,4.30
2023-02-17T09:16:44.539Z,4.10
2023-02-17T09:19:11.636Z,4.20
2023-02-17T09:21:38.645Z,4.40
2023-02-17T09:24:09.273Z,4.40
2023-02-17T09:26:36.320Z,4.20
2023-02-17T09:29:04.919Z,4.30
2023-02-17T09:31:32.428Z,4.50
2023-02-17T09:34:00.816Z,4.40
2023-02-17T09:36:38.678Z,4.40
2023-02-17T09:39:06.176Z,4.30
2023-02-17T09:41:45.377Z,4.30
2023-02-17T13:48:16.190Z,4.40
2023-02-17T13:50:52.371Z,4.60
2023-02-17T14:29:23.295Z,4.40
2023-02-17T14:31:52.768Z,4.40
2023-02-17T14:34:31.949Z,4.40
2023-02-17T14:37:11.496Z,4.50
2023-02-17T14:39:38.500Z,4.30
2023-02-17T14:42:05.670Z,4.40
2023-02-17T14:44:32.680Z,4.30
2023-02-17T14:47:00.867Z,4.40
2023-02-17T14:49:27.825Z,4.20
2023-02-17T14:51:57.494Z,4.40
2023-02-17T14:54:26.834Z,4.50
2023-02-17T14:57:14.231Z,4.60
2023-02-17T14:59:43.931Z,4.70
2023-02-17T15:02:30.354Z,4.40
2023-02-17T15:04:57.333Z,4.60
2023-02-17T15:07:24.448Z,4.70
2023-02-17T15:09:51.473Z,4.60
2023-02-17T15:12:21.354Z,4.70
2023-02-17T15:14:49.142Z,4.50
2023-02-17T15:17:16.737Z,4.70
2023-02-17T15:19:46.402Z,4.50
2023-02-17T15:22:14.356Z,4.80
2023-02-17T15:24:41.602Z,4.70
2023-02-17T15:27:14.309Z,4.80
2023-02-17T15:29:41.568Z,4.70
2023-02-17T15:32:19.145Z,4.80
2023-02-17T15:34:46.587Z,4.90
2023-02-17T15:37:13.762Z,5.00
2023-02-17T15:39:40.804Z,5.00
2023-02-17T15:42:13.822Z,5.10
2023-02-17T15:44:49.305Z,5.10
2023-02-17T15:47:19.106Z,5.10
2023-02-17T15:49:46.793Z,5.20
2023-02-17T15:52:16.665Z,5.20
2023-02-17T15:54:44.297Z,5.30
2023-02-17T15:57:30.959Z,5.10
2023-02-17T15:59:58.360Z,5.10
2023-02-17T16:02:26.092Z,5.40
2023-02-17T16:04:54.045Z,5.30
2023-02-17T16:07:21.744Z,5.30
2023-02-17T16:09:48.736Z,5.40
2023-02-17T16:12:19.048Z,5.30
2023-02-17T16:14:46.116Z,5.20
2023-02-17T16:17:16.200Z,5.30
2023-02-17T16:19:43.603Z,5.40
2023-02-17T16:22:10.586Z,5.40
2023-02-17T16:24:37.538Z,5.30
2023-02-17T16:27:09.589Z,5.30
2023-02-17T16:29:36.570Z,5.40
2023-02-17T16:32:04.167Z,5.30
2023-02-17T16:34:33.607Z,5.20
2023-02-17T16:37:04.655Z,5.20
2023-02-17T16:39:31.768Z,5.10
2023-02-17T16:41:58.929Z,5.20
2023-02-17T16:44:26.202Z,5.20
2023-02-17T16:46:54.973Z,5.40
2023-02-17T16:49:33.721Z,5.20
2023-02-17T16:52:08.446Z,5.20
2023-02-17T16:54:36.373Z,5.20
2023-02-17T16:57:03.635Z,5.20
2023-02-17T16:59:30.623Z,5.40
2023-02-17T17:01:57.912Z,5.10
2023-02-17T17:04:24.870Z,5.20
2023-02-17T17:06:52.717Z,5.10
2023-02-17T17:09:22.932Z,5.10
2023-02-17T17:11:50.082Z,5.30
2023-02-17T17:14:17.267Z,5.00
2023-02-17T17:16:51.191Z,5.20
2023-02-17T17:19:18.468Z,5.10
2023-02-17T17:21:45.442Z,5.20
2023-02-17T17:24:12.373Z,5.20
2023-02-17T17:26:45.964Z,5.30
2023-02-17T17:29:14.999Z,5.30
2023-02-17T17:31:42.051Z,5.20
2023-02-17T17:34:09.244Z,5.40
2023-02-17T17:36:47.300Z,5.40
2023-02-17T17:39:20.552Z,5.30
2023-02-17T17:41:47.725Z,5.30
2023-02-17T17:44:14.813Z,5.30
2023-02-17T17:46:42.225Z,5.30
2023-02-17T17:49:12.325Z,5.30
2023-02-17T17:51:39.979Z,5.40
2023-02-17T17:54:07.542Z,5.40
2023-02-17T17:56:39.353Z,5.30
2023-02-17T17:59:06.983Z,5.40
2023-02-17T18:01:34.715Z,5.50
2023-02-17T18:04:02.071Z,5.40
2023-02-17T18:06:43.504Z,5.50
2023-02-17T18:09:25.846Z,5.20
2023-02-17T18:12:01.333Z,5.40
2023-02-17T18:14:28.992Z,5.40
2023-02-17T18:16:56.005Z,5.60
2023-02-17T18:19:23.669Z,5.60
2023-02-17T18:21:50.689Z,5.50
2023-02-17T18:24:17.664Z,5.40
2023-02-17T18:26:44.610Z,5.60
2023-02-17T18:29:11.521Z,5.60
2023-02-17T18:31:38.554Z,5.50
2023-02-17T18:34:06.116Z,5.50
2023-02-17T18:36:33.155Z,5.70
2023-02-17T18:39:00.111Z,5.80
2023-02-17T18:41:32.996Z,5.80
2023-02-17T18:44:02.076Z,5.70
2023-02-17T18:46:29.435Z,5.90
2023-02-17T18:48:57.080Z,5.70
2023-02-17T18:51:26.890Z,5.80
2023-02-17T18:53:55.991Z,5.70
2023-02-17T18:56:25.941Z,5.60
2023-02-17T18:58:55.352Z,5.60
2023-02-17T19:01:26.859Z,5.60
2023-02-17T19:03:54.167Z,5.70
2023-02-17T19:06:24.318Z,5.70
2023-02-17T19:08:52.471Z,5.60
2023-02-17T19:11:21.043Z,5.70
2023-02-17T19:13:49.048Z,5.70
2023-02-17T19:16:24.692Z,5.50
2023-02-17T19:18:52.776Z,5.50
2023-02-17T19:21:20.602Z,5.30
2023-02-17T19:23:48.232Z,5.30
2023-02-17T19:26:16.046Z,5.30
2023-02-17T19:28:44.068Z,5.30
2023-02-17T19:31:15.420Z,5.10
2023-02-17T19:33:44.436Z,5.10
2023-02-17T19:36:14.265Z,4.90
2023-02-17T19:38:41.255Z,5.00
2023-02-17T19:41:10.552Z,5.00
2023-02-17T19:43:37.564Z,5.00
2023-02-17T19:46:05.449Z,5.10
2023-02-17T19:48:33.176Z,5.10
2023-02-17T19:51:03.066Z,5.20
2023-02-17T19:53:31.700Z,5.10
2023-02-17T19:56:12.526Z,5.20
2023-02-17T19:58:41.134Z,5.10
2023-02-17T20:01:10.565Z,5.10
2023-02-17T20:03:37.853Z,5.20
2023-02-17T20:06:18.069Z,5.10
2023-02-17T20:08:53.257Z,5.40
2023-02-17T20:11:20.774Z,5.20
2023-02-17T20:13:47.803Z,5.10
2023-02-17T20:16:16.110Z,5.20
2023-02-17T20:18:45.807Z,5.30
2023-02-17T20:21:15.666Z,5.40
2023-02-17T20:23:43.153Z,5.40
2023-02-17T20:26:16.927Z,5.40
2023-02-17T20:28:43.989Z,5.40
2023-02-17T20:31:11.346Z,5.20
2023-02-17T20:33:39.027Z,5.40
2023-02-17T20:36:07.868Z,5.40
2023-02-17T20:38:35.381Z,5.20
2023-02-17T20:41:02.918Z,5.30
2023-02-17T20:43:30.052Z,5.20
2023-02-17T20:45:58.576Z,5.30
2023-02-17T20:48:28.647Z,5.30
2023-02-17T20:50:57.331Z,5.20
2023-02-17T20:53:25.152Z,5.30
2023-02-17T20:55:52.649Z,5.50
2023-02-17T20:58:19.690Z,5.50
2023-02-17T21:00:47.419Z,5.50
2023-02-17T21:03:14.659Z,5.30
2023-02-17T21:05:41.920Z,5.40
2023-02-17T21:08:15.507Z,5.20
2023-02-17T21:10:42.803Z,5.40
2023-02-17T21:13:09.851Z,5.20
2023-02-17T21:15:36.881Z,5.30
2023-02-17T21:18:05.729Z,5.20
2023-02-17T21:20:33.298Z,5.20
2023-02-17T21:23:01.204Z,5.30
2023-02-17T21:25:28.493Z,5.20
2023-02-17T21:27:55.714Z,5.30
2023-02-17T21:30:23.351Z,5.00
2023-02-17T21:32:57.752Z,5.20
2023-02-17T21:35:25.120Z,5.20
2023-02-17T21:37:52.127Z,5.20
2023-02-17T21:40:19.257Z,5.20
2023-02-17T21:43:04.593Z,5.10
2023-02-17T21:45:38.134Z,5.20
2023-02-17T21:48:07.511Z,5.10
2023-02-17T21:50:34.618Z,5.10
2023-02-17T21:53:01.721Z,5.10
2023-02-17T21:55:28.931Z,5.00
2023-02-17T21:57:55.966Z,5.10
2023-02-17T22:00:23.141Z,5.10
2023-02-17T22:02:50.116Z,5.10
2023-02-17T22:05:17.238Z,5.20
2023-02-17T22:07:47.413Z,5.10
2023-02-17T22:10:14.443Z,5.20
2023-02-17T22:12:41.573Z,5.10
2023-02-17T22:15:10.744Z,5.00
2023-02-17T22:17:37.806Z,5.10
2023-02-17T22:20:05.539Z,5.00
2023-02-17T22:22:32.533Z,4.90
2023-02-17T22:24:59.754Z,4.70
2023-02-17T22:27:26.783Z,4.70
2023-02-17T22:29:55.849Z,4.90
2023-02-17T22:32:23.084Z,4.80
2023-02-17T22:34:50.503Z,4.60
2023-02-17T22:37:17.517Z,4.80
2023-02-17T22:39:44.890Z,4.70
2023-02-17T22:42:11.856Z,4.60
2023-02-17T22:44:38.837Z,4.70
2023-02-17T22:47:05.844Z,4.50
2023-02-17T22:49:32.865Z,4.50
2023-02-17T22:51:59.954Z,4.50
2023-02-17T22:54:26.949Z,4.70
2023-02-17T22:56:54.008Z,4.70
2023-02-17T22:59:21.013Z,4.80
2023-02-17T23:01:48.441Z,4.80
2023-02-17T23:04:15.969Z,4.90
2023-02-17T23:06:43.941Z,4.70
2023-02-17T23:09:19.588Z,4.90
2023-02-17T23:11:50.561Z,4.70
2023-02-17T23:14:19.295Z,4.80
2023-02-17T23:16:46.289Z,4.70
2023-02-17T23:19:16.362Z,4.60
2023-02-17T23:21:49.269Z,4.70
2023-02-17T23:24:17.750Z,4.80
2023-02-17T23:26:45.100Z,4.70
2023-02-17T23:29:12.161Z,4.80
2023-02-17T23:31:39.710Z,4.60
2023-02-17T23:34:07.708Z,4.60
2023-02-17T23:36:35.218Z,4.70
2023-02-17T23:39:02.702Z,5.00
2023-02-17T23:41:29.810Z,4.90
2023-02-17T23:43:56.990Z,4.70
2023-02-17T23:46:24.224Z,4.80
2023-02-17T23:48:51.415Z,4.60
2023-02-17T23:51:19.399Z,4.70
2023-02-17T23:53:47.109Z,4.90
2023-02-17T23:56:20.069Z,4.60
2023-02-17T23:58:47.386Z,4.70
